Time;durP1;ratioP1;P1;durP2;ratioP2;P2;SDS_P1;SDS_P2;PMS_P1;PMS_P2;Temp;Humidity;BMP_temperature;BMP_pressure;BME280_temperature;BME280_humidity;BME280_pressure;Samples;Min_cycle;Max_cycle;Signal;HPM_P1;HPM_P2
2021/03/09 00:01:57;;;;;;;6.85;3.47;;;;;;;22.14;24.42;156955.77;1768047;80;21223;-72
2021/03/09 00:04:30;;;;;;;8.55;3.52;;;;;;;22.31;24.40;157000.81;1759833;80;21182;-73
2021/03/09 00:07:02;;;;;;;7.53;3.70;;;;;;;22.46;24.38;157040.55;1759345;81;21752;-72
2021/03/09 00:09:35;;;;;;;8.00;3.85;;;;;;;22.51;24.31;157053.81;1771534;80;21778;-73
2021/03/09 00:12:08;;;;;;;8.33;4.30;;;;;;;22.50;24.28;157051.16;1786367;80;21697;-73
2021/03/09 00:14:41;;;;;;;8.08;3.62;;;;;;;22.45;24.24;157037.95;1788550;80;21361;-73
2021/03/09 00:17:16;;;;;;;6.97;3.58;;;;;;;22.33;24.38;157007.47;1790496;80;21814;-73
2021/03/09 00:19:48;;;;;;;8.15;3.52;;;;;;;22.21;24.54;156974.33;1774498;80;21159;-73
2021/03/09 00:22:20;;;;;;;5.72;3.17;;;;;;;22.43;24.39;157032.64;1761436;80;21160;-73
2021/03/09 00:24:53;;;;;;;8.05;3.85;;;;;;;22.58;24.27;157072.34;1759021;80;21762;-73
2021/03/09 00:27:25;;;;;;;6.72;3.05;;;;;;;22.55;24.42;157065.73;1786008;80;21203;-72
2021/03/09 00:29:57;;;;;;;5.10;2.50;;;;;;;22.42;24.50;157031.28;1763045;80;21183;-72
2021/03/09 00:32:29;;;;;;;6.67;3.75;;;;;;;22.47;24.25;157044.56;1759512;80;21191;-72
2021/03/09 00:35:02;;;;;;;7.78;2.72;;;;;;;22.53;24.28;157060.42;1775002;80;21353;-73
2021/03/09 00:37:34;;;;;;;6.33;3.50;;;;;;;22.53;24.26;157060.42;1759401;80;21186;-73
2021/03/09 00:40:08;;;;;;;7.15;3.17;;;;;;;22.60;24.24;157077.66;1761644;80;21179;-72
2021/03/09 00:42:41;;;;;;;8.13;3.08;;;;;;;22.69;24.32;157101.47;1761293;80;21171;-73
2021/03/09 00:45:14;;;;;;;5.97;2.77;;;;;;;22.72;24.21;157109.44;1790563;80;21243;-73
2021/03/09 00:47:48;;;;;;;6.53;3.05;;;;;;;22.87;24.27;157150.50;1782264;79;22593;-73
2021/03/09 00:50:20;;;;;;;6.20;3.12;;;;;;;23.00;24.11;157184.95;1779219;80;21302;-73
2021/03/09 00:52:52;;;;;;;6.35;3.05;;;;;;;23.02;24.06;157190.27;1765404;80;21715;-73
2021/03/09 00:55:25;;;;;;;7.15;4.25;;;;;;;23.16;23.98;157227.42;1789029;80;21274;-73
2021/03/09 00:57:58;;;;;;;7.60;3.15;;;;;;;23.10;24.02;157212.84;1765312;80;21731;-73
2021/03/09 01:00:31;;;;;;;5.25;3.05;;;;;;;23.23;24.03;157247.31;1783148;79;21188;-73
2021/03/09 01:03:04;;;;;;;5.65;3.02;;;;;;;23.16;23.75;157227.42;1779807;80;21212;-73
2021/03/09 01:05:36;;;;;;;7.60;3.20;;;;;;;24.00;23.37;157451.50;1721043;82;21878;-73
2021/03/09 01:08:09;;;;;;;5.70;2.52;;;;;;;24.35;23.06;157545.69;1759848;80;21192;-72
2021/03/09 01:10:41;;;;;;;8.13;3.15;;;;;;;24.49;22.89;157581.53;1763380;79;21324;-72
2021/03/09 01:13:13;;;;;;;5.22;3.05;;;;;;;24.69;22.76;157635.94;1781454;80;21294;-72
2021/03/09 01:15:45;;;;;;;5.17;2.75;;;;;;;24.73;22.71;157647.88;1745465;82;21168;-72
2021/03/09 01:18:20;;;;;;;5.50;2.87;;;;;;;24.67;22.69;157630.62;1769123;80;21810;-73
2021/03/09 01:20:53;;;;;;;5.10;3.25;;;;;;;24.47;22.90;157577.58;1755381;80;21302;-72
2021/03/09 01:23:25;;;;;;;7.28;2.70;;;;;;;24.73;22.87;157647.88;1760675;80;21944;-72
2021/03/09 01:25:57;;;;;;;4.87;2.90;;;;;;;22.78;23.90;157125.36;1733962;82;21723;-72
2021/03/09 01:28:29;;;;;;;5.50;2.83;;;;;;;22.77;24.17;157122.70;1755704;80;21374;-72
2021/03/09 01:31:01;;;;;;;7.12;2.62;;;;;;;22.71;24.27;157106.78;1752796;82;21314;-72
2021/03/09 01:33:34;;;;;;;4.58;2.58;;;;;;;22.37;24.36;157016.72;1763138;80;21287;-72
2021/03/09 01:36:07;;;;;;;5.30;2.65;;;;;;;22.53;24.13;157060.42;1718021;83;21331;-72
2021/03/09 01:38:40;;;;;;;5.28;2.10;;;;;;;22.54;24.20;157061.78;1706582;83;21327;-72
2021/03/09 01:41:13;;;;;;;6.67;2.52;;;;;;;22.56;24.30;157067.09;1723818;82;21331;-72
2021/03/09 01:43:45;;;;;;;3.98;2.27;;;;;;;22.36;24.42;157014.06;1715030;82;21181;-72
2021/03/09 01:46:21;;;;;;;3.33;1.82;;;;;;;22.42;24.21;157030.00;1721445;82;21748;-72
2021/03/09 01:48:55;;;;;;;8.13;2.60;;;;;;;22.43;24.30;157032.64;1729517;82;21787;-72
2021/03/09 01:51:28;;;;;;;4.45;2.22;;;;;;;22.51;24.42;157053.81;1747641;82;21307;-72
2021/03/09 01:54:00;;;;;;;5.30;2.47;;;;;;;22.49;24.11;157048.52;1744832;82;21854;-72
2021/03/09 01:56:32;;;;;;;4.15;2.52;;;;;;;22.38;25.25;157019.38;1749546;81;21216;-72
2021/03/09 01:59:04;;;;;;;3.17;2.10;;;;;;;22.40;24.60;157024.69;1723109;82;21416;-72
2021/03/09 02:01:36;;;;;;;4.42;1.87;;;;;;;22.41;24.49;157028.64;1729079;81;21878;-72
2021/03/09 02:04:09;;;;;;;4.50;2.00;;;;;;;22.75;24.39;157117.41;1769766;80;21301;-73
2021/03/09 02:06:41;;;;;;;3.95;1.98;;;;;;;23.09;24.20;157210.20;1728942;81;21382;-72
2021/03/09 02:09:13;;;;;;;3.85;2.20;;;;;;;23.23;24.25;157245.95;1784583;80;21295;-73
2021/03/09 02:11:51;;;;;;;5.72;2.42;;;;;;;23.30;24.16;157264.55;1734968;81;21850;-72
2021/03/09 02:14:45;;;;;;;3.20;1.98;;;;;;;23.25;23.93;157252.62;1776428;79;21813;-73
2021/03/09 02:17:37;;;;;;;3.60;1.70;;;;;;;23.29;23.93;157263.19;1742192;81;21346;-72
2021/03/09 02:20:36;;;;;;;3.15;1.80;;;;;;;23.49;23.94;157314.89;1759215;81;21227;-72
2021/03/09 02:23:24;;;;;;;2.52;1.50;;;;;;;23.55;23.88;157332.13;1700468;83;21276;-72
2021/03/09 02:26:25;;;;;;;2.70;2.00;;;;;;;23.39;24.03;157289.69;1789756;80;21357;-73
2021/03/09 02:29:29;;;;;;;3.55;1.60;;;;;;;23.22;23.89;157243.31;1699927;83;21861;-72
2021/03/09 02:32:01;;;;;;;3.55;1.90;;;;;;;23.35;23.91;157277.77;1703525;81;21342;-73
2021/03/09 02:34:36;;;;;;;4.30;2.17;;;;;;;23.34;23.93;157276.47;1789781;80;21588;-73
2021/03/09 02:37:12;;;;;;;3.47;2.50;;;;;;;23.36;24.01;157280.42;1753532;81;21200;-73
2021/03/09 02:39:47;;;;;;;4.28;2.40;;;;;;;23.40;24.10;157291.05;1728549;83;21862;-73
2021/03/09 02:42:22;;;;;;;4.87;2.30;;;;;;;23.20;23.92;157238.05;1760201;80;21192;-73
2021/03/09 02:45:00;;;;;;;3.30;1.62;;;;;;;23.35;23.92;157279.13;1751678;81;21332;-73
2021/03/09 02:47:32;;;;;;;4.00;1.98;;;;;;;23.23;24.08;157245.95;1758561;81;21355;-73
2021/03/09 02:50:06;;;;;;;4.12;1.60;;;;;;;23.36;23.94;157281.78;1757411;81;21342;-73
2021/03/09 02:52:38;;;;;;;5.65;1.90;;;;;;;23.38;24.03;157285.73;1790565;80;21853;-73
2021/03/09 02:55:12;;;;;;;4.58;2.02;;;;;;;23.66;23.79;157359.98;1732530;81;21295;-72
2021/03/09 02:57:45;;;;;;;3.52;1.87;;;;;;;23.44;23.74;157302.97;1761877;80;21861;-73
2021/03/09 03:00:18;;;;;;;4.17;1.98;;;;;;;22.98;23.90;157181.00;1726717;82;21910;-73
2021/03/09 03:02:50;;;;;;;4.62;2.05;;;;;;;23.01;24.05;157187.61;1698471;84;21208;-73
2021/03/09 03:05:22;;;;;;;5.30;2.20;;;;;;;23.02;24.05;157190.27;1715672;83;21240;-73
2021/03/09 03:07:55;;;;;;;4.55;2.62;;;;;;;22.99;23.92;157183.66;1679476;84;21385;-73
2021/03/09 03:10:27;;;;;;;3.75;2.35;;;;;;;23.01;23.94;157187.61;1720794;82;21184;-73
2021/03/09 03:12:59;;;;;;;5.65;2.10;;;;;;;22.97;23.92;157178.34;1697082;84;21215;-73
2021/03/09 03:15:32;;;;;;;3.47;2.02;;;;;;;23.04;24.01;157195.56;1715823;83;21186;-73
2021/03/09 03:18:07;;;;;;;2.62;1.52;;;;;;;23.18;23.69;157234.03;1698665;83;21874;-73
2021/03/09 03:20:40;;;;;;;3.00;2.35;;;;;;;23.23;23.71;157247.31;1723349;83;21191;-73
2021/03/09 03:23:13;;;;;;;2.30;1.35;;;;;;;23.31;23.67;157267.20;1708972;82;21335;-73
2021/03/09 03:25:52;;;;;;;2.33;1.52;;;;;;;23.44;23.52;157302.97;1712704;83;21379;-73
2021/03/09 03:28:25;;;;;;;2.05;1.50;;;;;;;23.50;23.70;157317.55;1703658;83;21381;-73
2021/03/09 03:30:57;;;;;;;1.62;1.27;;;;;;;23.70;23.56;157371.91;1717988;82;21734;-72
2021/03/09 03:33:30;;;;;;;4.17;2.00;;;;;;;23.68;23.36;157365.25;1689176;83;21260;-72
2021/03/09 03:36:05;;;;;;;3.25;1.62;;;;;;;23.56;23.52;157333.44;1745313;82;22350;-73
2021/03/09 03:38:40;;;;;;;2.42;1.80;;;;;;;23.63;23.62;157353.31;1703319;83;21203;-72
2021/03/09 03:41:12;;;;;;;3.15;1.87;;;;;;;23.51;23.69;157321.50;1741508;81;21210;-73
2021/03/09 03:43:45;;;;;;;1.98;1.62;;;;;;;23.51;23.59;157320.20;1724012;83;21240;-72
2021/03/09 03:46:17;;;;;;;2.77;1.85;;;;;;;23.57;23.62;157336.08;1722750;83;21412;-71
2021/03/09 03:48:49;;;;;;;2.00;1.45;;;;;;;23.62;23.68;157349.36;1719044;82;21220;-71
2021/03/09 03:51:29;;;;;;;3.20;1.82;;;;;;;23.55;23.73;157332.13;1727254;83;21235;-71
2021/03/09 03:54:55;;;;;;;3.62;1.82;;;;;;;23.51;23.84;157321.50;1734317;82;21347;-71
2021/03/09 03:57:36;;;;;;;3.50;1.60;;;;;;;23.46;25.07;157308.28;1699938;83;22326;-70
2021/03/09 04:00:09;;;;;;;1.72;1.42;;;;;;;23.43;24.86;157300.31;1707993;83;21362;-70
2021/03/09 04:02:42;;;;;;;1.90;1.50;;;;;;;23.40;24.41;157291.05;1688044;83;21379;-69
2021/03/09 04:05:15;;;;;;;2.90;1.55;;;;;;;23.37;24.49;157283.08;1750821;82;21731;-69
2021/03/09 04:07:48;;;;;;;4.90;1.70;;;;;;;23.50;24.30;157318.84;1723008;83;21347;-69
2021/03/09 04:10:20;;;;;;;2.70;1.40;;;;;;;23.52;24.40;157322.86;1725622;83;21312;-70
2021/03/09 04:12:54;;;;;;;2.42;1.80;;;;;;;23.64;24.39;157354.67;1727668;82;21184;-69
2021/03/09 04:15:27;;;;;;;2.33;1.60;;;;;;;23.64;24.42;157355.97;1705458;83;21209;-70
2021/03/09 04:17:59;;;;;;;2.72;1.65;;;;;;;23.67;24.32;157362.64;1731229;83;21186;-70
2021/03/09 04:20:35;;;;;;;2.62;1.70;;;;;;;23.64;24.43;157354.67;1714296;83;21367;-69
2021/03/09 04:23:07;;;;;;;3.10;1.77;;;;;;;23.67;24.46;157363.94;1694238;84;21739;-70
2021/03/09 04:25:41;;;;;;;4.28;2.20;;;;;;;23.45;24.72;157305.63;1707091;83;21360;-69
2021/03/09 04:28:13;;;;;;;2.05;1.52;;;;;;;23.47;24.71;157309.58;1705245;83;21793;-69
2021/03/09 04:30:45;;;;;;;3.60;1.77;;;;;;;23.52;24.52;157324.16;1687504;83;21755;-69
2021/03/09 04:33:18;;;;;;;4.70;2.17;;;;;;;23.41;24.65;157295.00;1718248;81;21234;-69
2021/03/09 04:35:51;;;;;;;3.77;1.75;;;;;;;23.71;24.55;157374.56;1753068;80;21192;-69
2021/03/09 04:38:23;;;;;;;7.90;2.52;;;;;;;23.63;24.81;157352.02;1753085;82;21307;-68
2021/03/09 04:41:15;;;;;;;6.17;2.30;;;;;;;23.58;24.95;157338.73;1721105;82;21269;-73
2021/03/09 04:43:55;;;;;;;3.40;1.95;;;;;;;23.57;25.11;157337.44;1733058;82;21924;-71
2021/03/09 04:46:27;;;;;;;3.58;2.22;;;;;;;23.65;25.03;157358.63;1750908;80;21316;-71
2021/03/09 04:49:00;;;;;;;4.37;2.10;;;;;;;23.83;24.96;157406.44;1751164;80;21221;-71
2021/03/09 04:51:37;;;;;;;3.50;2.02;;;;;;;23.89;24.99;157423.69;1728759;82;21320;-73
2021/03/09 04:54:09;;;;;;;8.53;2.33;;;;;;;23.85;25.02;157413.06;1735432;81;21367;-70
2021/03/09 04:56:42;;;;;;;4.60;2.42;;;;;;;23.93;24.96;157434.25;1749005;81;21153;-70
2021/03/09 04:59:14;;;;;;;4.25;2.30;;;;;;;23.66;25.09;157361.30;1749433;82;22022;-70
2021/03/09 05:01:47;;;;;;;3.77;2.20;;;;;;;23.76;25.01;157389.20;1749646;80;21221;-72
2021/03/09 05:04:20;;;;;;;4.10;2.72;;;;;;;23.82;24.97;157403.78;1757231;80;21240;-71
2021/03/09 05:06:53;;;;;;;4.75;2.55;;;;;;;23.87;25.03;157417.02;1756202;80;21174;-69
2021/03/09 05:09:25;;;;;;;6.22;3.12;;;;;;;23.93;24.98;157432.95;1757793;81;21205;-70
2021/03/09 05:11:58;;;;;;;6.60;3.17;;;;;;;24.03;24.96;157459.47;1740333;81;21225;-74
2021/03/09 05:14:33;;;;;;;4.83;2.83;;;;;;;24.20;24.85;157505.89;1708325;81;21410;-72
2021/03/09 05:17:06;;;;;;;8.18;3.50;;;;;;;24.19;24.89;157501.92;1754004;80;21224;-71
2021/03/09 05:19:39;;;;;;;6.80;2.75;;;;;;;24.15;24.88;157492.59;1784099;79;21819;-71
2021/03/09 05:22:12;;;;;;;6.25;3.52;;;;;;;24.12;24.87;157484.69;1784240;79;21351;-72
2021/03/09 05:24:45;;;;;;;6.87;3.30;;;;;;;24.09;24.89;157476.70;1728568;81;21233;-69
2021/03/09 05:27:18;;;;;;;9.10;3.37;;;;;;;24.02;24.92;157458.11;1701959;81;21316;-72
2021/03/09 05:29:50;;;;;;;7.12;3.05;;;;;;;24.27;24.86;157524.44;1794664;79;21189;-71
2021/03/09 05:32:23;;;;;;;6.47;2.70;;;;;;;24.41;24.80;157561.58;1793941;79;21500;-72
2021/03/09 05:34:57;;;;;;;6.03;3.00;;;;;;;24.41;24.70;157561.58;1797322;79;21310;-70
2021/03/09 05:37:30;;;;;;;7.67;3.20;;;;;;;24.46;24.66;157574.92;1797324;78;21375;-73
2021/03/09 05:40:03;;;;;;;6.78;2.92;;;;;;;24.71;24.44;157641.22;1797801;79;21355;-73
2021/03/09 05:42:36;;;;;;;7.87;3.52;;;;;;;24.48;24.38;157578.87;1793218;79;21211;-73
2021/03/09 05:45:08;;;;;;;6.97;2.98;;;;;;;24.45;24.55;157570.91;1790920;79;21863;-71
2021/03/09 05:47:42;;;;;;;5.87;2.30;;;;;;;24.51;24.59;157588.16;1756804;80;21317;-75
2021/03/09 05:50:15;;;;;;;3.77;2.17;;;;;;;24.59;24.72;157609.42;1795832;79;21478;-71
2021/03/09 05:52:48;;;;;;;4.80;2.20;;;;;;;24.80;24.43;157666.44;1789833;79;21310;-79
2021/03/09 05:55:23;;;;;;;5.17;2.75;;;;;;;24.69;24.49;157637.25;1793971;79;21239;-70
2021/03/09 05:57:58;;;;;;;3.60;2.10;;;;;;;24.53;24.57;157592.17;1787699;79;21798;-69
2021/03/09 06:00:30;;;;;;;5.60;3.10;;;;;;;24.43;24.67;157566.91;1790615;79;21346;-68
2021/03/09 06:03:03;;;;;;;3.42;2.12;;;;;;;24.15;24.83;157492.59;1797113;78;21383;-70
2021/03/09 06:05:36;;;;;;;4.28;2.37;;;;;;;23.84;25.30;157409.09;1771571;79;21319;-71
2021/03/09 06:08:08;;;;;;;5.03;1.98;;;;;;;23.73;25.29;157379.83;1734086;82;21308;-70
2021/03/09 06:10:41;;;;;;;4.10;2.02;;;;;;;23.73;25.22;157379.83;1755492;80;21208;-71
2021/03/09 06:13:35;;;;;;;3.95;2.15;;;;;;;23.65;25.32;157358.63;1766482;80;21252;-70
2021/03/09 06:16:08;;;;;;;4.83;2.58;;;;;;;23.64;25.20;157355.97;1777524;80;21409;-70
2021/03/09 06:18:58;;;;;;;4.78;1.87;;;;;;;23.74;25.16;157383.84;1741743;81;21221;-69
2021/03/09 06:21:31;;;;;;;4.92;2.27;;;;;;;23.86;25.06;157415.72;1742580;80;21692;-69
2021/03/09 06:24:22;;;;;;;4.15;2.27;;;;;;;23.95;25.22;157439.56;1752540;82;21180;-69
2021/03/09 06:26:54;;;;;;;5.20;2.45;;;;;;;24.06;25.29;157468.73;1752787;80;21191;-69
2021/03/09 06:29:26;;;;;;;3.10;2.10;;;;;;;24.32;24.96;157537.72;1695662;83;21676;-69
2021/03/09 06:32:02;;;;;;;3.25;2.02;;;;;;;24.17;24.47;157496.61;1719942;83;21208;-70
2021/03/09 06:34:35;;;;;;;3.47;2.10;;;;;;;24.07;24.42;157471.39;1729300;82;21173;-69
2021/03/09 06:37:22;;;;;;;3.83;2.10;;;;;;;24.00;24.24;157452.84;1721077;83;21229;-69
2021/03/09 06:40:11;;;;;;;2.80;1.67;;;;;;;24.05;24.24;157464.78;1736807;82;21905;-69
2021/03/09 06:42:39;;;;;;;5.45;2.10;;;;;;;24.18;25.40;157499.27;1703469;83;21319;-69
2021/03/09 06:45:16;;;;;;;4.97;2.40;;;;;;;24.00;25.74;157451.50;1721877;82;21319;-69
2021/03/09 06:47:50;;;;;;;8.00;2.70;;;;;;;24.11;25.53;157480.66;1717959;83;21756;-70
2021/03/09 06:50:26;;;;;;;5.15;2.30;;;;;;;24.23;25.39;157512.50;1754655;80;21176;-69
2021/03/09 06:53:05;;;;;;;4.70;2.30;;;;;;;23.55;25.28;157332.13;1782183;79;21306;-69
2021/03/09 06:55:37;;;;;;;3.98;2.00;;;;;;;23.55;26.11;157332.13;1783662;80;21393;-69
2021/03/09 06:58:13;;;;;;;4.47;2.10;;;;;;;23.80;25.55;157398.47;1747613;82;21256;-69
2021/03/09 07:00:45;;;;;;;4.47;3.05;;;;;;;24.38;24.67;157552.31;1775110;80;21374;-69
2021/03/09 07:03:42;;;;;;;3.77;2.50;;;;;;;24.51;23.75;157588.16;1781985;80;21342;-69
2021/03/09 07:06:11;;;;;;;5.92;2.10;;;;;;;24.63;23.81;157618.69;1776922;79;21341;-69
2021/03/09 07:08:43;;;;;;;4.33;2.15;;;;;;;24.73;23.65;157647.88;1785890;80;21168;-69
2021/03/09 07:11:15;;;;;;;3.70;2.22;;;;;;;24.63;23.68;157618.69;1785560;80;21187;-69
2021/03/09 07:13:48;;;;;;;6.45;2.75;;;;;;;25.00;23.27;157718.20;1775338;80;21208;-69
2021/03/09 07:16:20;;;;;;;4.50;2.40;;;;;;;25.07;23.01;157738.11;1788451;80;21175;-69
2021/03/09 07:18:53;;;;;;;3.08;2.00;;;;;;;25.13;22.85;157754.06;1788387;80;21334;-69
2021/03/09 07:21:28;;;;;;;3.70;2.10;;;;;;;25.18;22.90;157766.00;1785260;80;21152;-69
2021/03/09 07:24:02;;;;;;;7.90;2.33;;;;;;;24.84;22.54;157677.08;1757264;80;21687;-69
2021/03/09 07:26:36;;;;;;;9.43;2.37;;;;;;;24.29;22.90;157528.44;1749557;80;21263;-69
2021/03/09 07:29:08;;;;;;;5.15;2.58;;;;;;;24.24;22.76;157515.16;1785805;80;21346;-70
2021/03/09 07:31:42;;;;;;;5.50;2.40;;;;;;;24.21;22.80;157508.53;1762171;80;21369;-69
2021/03/09 07:34:14;;;;;;;3.22;2.30;;;;;;;24.31;22.50;157535.06;1787940;80;21215;-69
2021/03/09 07:36:47;;;;;;;8.30;2.17;;;;;;;24.27;22.60;157524.44;1788389;80;21465;-69
2021/03/09 07:39:19;;;;;;;6.97;2.50;;;;;;;24.38;22.83;157553.61;1788323;80;21160;-70
2021/03/09 07:41:52;;;;;;;4.92;2.08;;;;;;;24.37;22.47;157550.95;1757079;81;21817;-69
2021/03/09 07:44:25;;;;;;;5.97;2.27;;;;;;;24.31;22.35;157535.06;1757069;81;21310;-69
2021/03/09 07:46:58;;;;;;;6.30;2.65;;;;;;;24.39;22.47;157554.97;1758123;80;21813;-69
2021/03/09 07:49:29;;;;;;;4.75;2.42;;;;;;;24.77;22.60;157657.16;1757776;80;21862;-69
2021/03/09 07:52:20;;;;;;;6.83;2.70;;;;;;;24.91;22.24;157694.33;1788109;80;21195;-69
2021/03/09 07:55:08;;;;;;;7.20;3.08;;;;;;;25.01;22.23;157720.86;1757838;80;21326;-69
2021/03/09 07:57:40;;;;;;;8.30;2.80;;;;;;;25.12;22.22;157751.41;1783811;80;21246;-70
2021/03/09 08:00:17;;;;;;;8.28;3.80;;;;;;;25.18;22.20;157766.00;1761437;80;21287;-69
2021/03/09 08:02:55;;;;;;;8.43;3.17;;;;;;;25.17;22.13;157764.70;1757111;80;21302;-69
2021/03/09 08:05:30;;;;;;;7.95;3.27;;;;;;;25.19;22.20;157768.67;1779131;80;21353;-69
2021/03/09 08:08:04;;;;;;;10.25;3.90;;;;;;;25.26;22.20;157788.59;1785948;80;21644;-69
2021/03/09 08:10:40;;;;;;;7.62;2.70;;;;;;;25.58;22.12;157873.53;1787881;79;21160;-69
2021/03/09 08:13:16;;;;;;;5.25;2.52;;;;;;;25.93;22.02;157966.55;1761666;80;21333;-69
2021/03/09 08:15:48;;;;;;;9.13;3.75;;;;;;;26.18;21.93;158034.31;1760437;80;21159;-69
2021/03/09 08:18:30;;;;;;;13.80;3.72;;;;;;;26.35;21.64;158079.45;1788078;79;21258;-70
2021/03/09 08:21:02;;;;;;;6.83;2.75;;;;;;;26.38;21.78;158087.44;1788411;79;21413;-69
2021/03/09 08:23:39;;;;;;;10.20;3.45;;;;;;;26.53;21.72;158126.00;1784485;80;21203;-69
2021/03/09 08:26:25;;;;;;;8.00;3.62;;;;;;;26.86;21.62;158216.38;1785861;79;21176;-69
2021/03/09 08:28:57;;;;;;;6.20;3.33;;;;;;;27.05;21.53;158266.95;1785339;80;21707;-69
2021/03/09 08:31:29;;;;;;;5.97;2.83;;;;;;;27.25;21.16;158320.12;1787615;79;21333;-69
2021/03/09 08:34:15;;;;;;;3.40;2.20;;;;;;;27.07;21.43;158270.92;1785019;80;21198;-69
2021/03/09 08:36:48;;;;;;;4.08;2.45;;;;;;;26.73;21.55;158181.86;1788325;80;21196;-69
2021/03/09 08:39:20;;;;;;;4.00;2.47;;;;;;;26.54;21.57;158130.03;1768821;80;21219;-69
2021/03/09 08:41:57;;;;;;;5.35;2.80;;;;;;;26.22;21.59;158044.91;1765408;80;21299;-69
2021/03/09 08:44:30;;;;;;;5.95;3.00;;;;;;;25.92;21.61;157965.23;1787951;80;21222;-69
2021/03/09 08:47:07;;;;;;;6.67;3.12;;;;;;;25.70;21.69;157905.41;1787953;80;21239;-69
2021/03/09 08:49:45;;;;;;;6.60;2.90;;;;;;;25.49;22.52;157849.64;1788374;80;21215;-69
2021/03/09 08:52:25;;;;;;;4.03;2.47;;;;;;;25.19;24.63;157768.67;1781541;80;21203;-69
2021/03/09 08:54:57;;;;;;;7.85;2.85;;;;;;;24.74;25.60;157649.19;1773512;80;21865;-69
2021/03/09 08:57:30;;;;;;;4.62;2.60;;;;;;;24.18;26.87;157499.27;1788293;80;21722;-69
2021/03/09 09:00:08;;;;;;;5.83;2.95;;;;;;;24.10;27.01;157478.02;1773558;80;21350;-69
2021/03/09 09:02:43;;;;;;;6.22;3.00;;;;;;;24.03;27.35;157460.77;1699974;83;21176;-69
2021/03/09 09:05:16;;;;;;;6.70;3.12;;;;;;;23.86;27.21;157414.36;1734510;82;21855;-70
2021/03/09 09:07:49;;;;;;;7.72;3.60;;;;;;;24.00;26.42;157451.50;1756148;81;21220;-70
2021/03/09 09:10:23;;;;;;;9.63;4.37;;;;;;;24.14;26.37;157488.64;1769027;80;21291;-70
2021/03/09 09:12:56;;;;;;;9.00;4.35;;;;;;;24.17;25.60;157496.61;1741031;81;21426;-70
2021/03/09 09:15:32;;;;;;;7.45;3.12;;;;;;;24.38;26.26;157553.61;1790470;80;21183;-70
2021/03/09 09:18:06;;;;;;;5.60;3.50;;;;;;;24.52;26.49;157590.81;1732879;81;21837;-70
2021/03/09 09:20:45;;;;;;;7.92;3.02;;;;;;;24.48;26.60;157578.87;1784531;80;21865;-70
2021/03/09 09:23:23;;;;;;;6.55;3.27;;;;;;;24.70;26.04;157638.61;1728682;81;21378;-70
2021/03/09 09:26:05;;;;;;;4.30;2.62;;;;;;;24.92;24.86;157696.98;1760595;80;21258;-70
2021/03/09 09:28:35;;;;;;;5.95;3.47;;;;;;;25.20;24.08;157771.33;1790246;80;21255;-70
2021/03/09 09:31:19;;;;;;;5.45;3.30;;;;;;;25.10;24.07;157744.73;1760141;80;21172;-70
2021/03/09 09:33:54;;;;;;;5.95;3.33;;;;;;;25.05;24.01;157732.80;1728708;81;21331;-70
2021/03/09 09:36:27;;;;;;;8.20;3.62;;;;;;;25.66;23.96;157896.13;1728526;81;21279;-70
2021/03/09 09:38:59;;;;;;;8.58;3.77;;;;;;;27.30;23.63;158333.44;1760372;80;22322;-71
2021/03/09 09:41:31;;;;;;;11.83;3.98;;;;;;;28.37;22.84;158619.48;1757021;81;21350;-71
2021/03/09 09:44:04;;;;;;;7.08;3.37;;;;;;;28.72;22.29;158712.62;1759188;81;21263;-71
2021/03/09 09:46:36;;;;;;;6.50;3.80;;;;;;;28.45;22.08;158640.75;1728659;81;21370;-71
2021/03/09 09:49:09;;;;;;;9.08;3.70;;;;;;;28.69;22.26;158706.00;1761815;80;21691;-71
2021/03/09 09:51:42;;;;;;;6.65;3.45;;;;;;;29.52;21.85;158927.06;1679511;83;21220;-71
2021/03/09 09:54:16;;;;;;;10.58;4.47;;;;;;;29.75;21.50;158988.31;1779500;79;21310;-70
2021/03/09 09:56:48;;;;;;;8.03;4.12;;;;;;;29.44;21.11;158905.77;1728618;83;21216;-71
2021/03/09 09:59:29;;;;;;;7.25;3.70;;;;;;;28.76;21.15;158724.61;1762729;80;21206;-71
2021/03/09 10:02:16;;;;;;;6.20;2.70;;;;;;;28.19;20.75;158571.50;1757956;81;21308;-71
2021/03/09 10:04:49;;;;;;;5.47;2.45;;;;;;;27.03;20.90;158261.64;1760450;80;21781;-70
2021/03/09 10:07:23;;;;;;;5.53;2.67;;;;;;;26.31;21.24;158067.50;1728457;81;21751;-70
2021/03/09 10:10:10;;;;;;;11.20;3.30;;;;;;;26.06;21.42;158001.08;1716991;83;21536;-70
2021/03/09 10:12:44;;;;;;;14.90;4.60;;;;;;;25.29;21.37;157796.56;1697698;84;21215;-70
2021/03/09 10:15:16;;;;;;;14.13;4.10;;;;;;;25.28;21.58;157792.59;1715712;83;21266;-70
2021/03/09 10:17:48;;;;;;;10.88;3.62;;;;;;;25.33;21.61;157805.84;1718331;83;21223;-70
2021/03/09 10:20:25;;;;;;;7.15;3.40;;;;;;;25.43;21.46;157833.75;1719368;82;21241;-70
2021/03/09 10:23:04;;;;;;;7.85;2.95;;;;;;;25.44;21.15;157836.41;1698275;84;21215;-70
2021/03/09 10:25:41;;;;;;;3.33;2.27;;;;;;;25.44;21.09;157836.41;1745642;82;22426;-70
2021/03/09 10:28:13;;;;;;;5.62;2.95;;;;;;;25.78;20.98;157926.73;1697069;83;21389;-70
2021/03/09 10:30:45;;;;;;;6.37;3.37;;;;;;;24.97;21.37;157710.22;1737707;82;21902;-70
2021/03/09 10:33:17;;;;;;;6.70;3.20;;;;;;;25.10;21.43;157746.09;1724478;83;21746;-70
2021/03/09 10:36:10;;;;;;;5.17;2.47;;;;;;;25.40;21.36;157824.45;1726863;83;21758;-70
2021/03/09 10:38:43;;;;;;;5.95;2.37;;;;;;;25.35;21.22;157812.47;1722939;83;21243;-71
2021/03/09 10:41:27;;;;;;;3.35;2.25;;;;;;;25.17;21.06;157763.41;1715893;83;21204;-70
2021/03/09 10:44:00;;;;;;;3.20;2.10;;;;;;;25.03;21.08;157726.17;1693134;83;21774;-70
2021/03/09 10:46:39;;;;;;;2.80;1.75;;;;;;;24.95;20.90;157704.91;1715939;83;21233;-70
2021/03/09 10:49:06;;;;;;;2.40;1.85;;;;;;;25.03;20.95;157726.17;1698353;84;21223;-70
2021/03/09 10:51:38;;;;;;;2.02;1.52;;;;;;;25.14;21.08;157755.42;1715842;83;21217;-71
2021/03/09 10:54:11;;;;;;;4.92;1.77;;;;;;;25.26;20.86;157788.59;1674944;84;21453;-70
2021/03/09 10:56:43;;;;;;;2.80;1.85;;;;;;;25.39;20.71;157821.81;1729589;82;21193;-70
2021/03/09 10:59:15;;;;;;;3.85;2.42;;;;;;;25.65;20.80;157893.45;1701336;83;21841;-70
2021/03/09 11:01:48;;;;;;;3.15;1.98;;;;;;;26.44;20.65;158102.11;1723635;82;21193;-70
2021/03/09 11:04:20;;;;;;;3.72;2.47;;;;;;;27.32;19.98;158337.41;1727122;83;21335;-71
2021/03/09 11:06:54;;;;;;;3.50;1.82;;;;;;;28.29;19.66;158596.84;1700389;83;21671;-70
2021/03/09 11:09:26;;;;;;;8.73;2.58;;;;;;;30.29;18.82;159132.28;1692068;84;21712;-71
2021/03/09 11:11:58;;;;;;;6.10;2.45;;;;;;;31.03;18.64;159330.97;1757301;81;21321;-71
2021/03/09 11:14:31;;;;;;;2.58;1.87;;;;;;;32.53;18.04;159735.23;1757210;81;21322;-71
2021/03/09 11:17:03;;;;;;;3.75;1.50;;;;;;;33.84;17.26;160085.23;1757098;81;21346;-71
2021/03/09 11:19:36;;;;;;;2.58;1.67;;;;;;;34.76;16.63;160333.89;1769998;80;21180;-71
2021/03/09 11:22:09;;;;;;;3.33;1.80;;;;;;;35.76;16.71;160601.47;1758665;80;21314;-72
2021/03/09 11:24:41;;;;;;;2.40;1.52;;;;;;;36.25;15.67;160735.27;1787942;80;21168;-71
2021/03/09 11:27:14;;;;;;;2.65;1.50;;;;;;;36.54;15.74;160812.95;1757213;81;21211;-71
2021/03/09 11:29:46;;;;;;;1.82;1.35;;;;;;;36.83;15.77;160890.56;1698471;84;21233;-71
2021/03/09 11:32:19;;;;;;;1.80;1.50;;;;;;;36.73;15.16;160863.80;1717606;82;21169;-71
2021/03/09 11:34:51;;;;;;;2.47;1.50;;;;;;;35.15;14.92;160438.25;1743782;81;21160;-71
2021/03/09 11:37:24;;;;;;;2.58;1.82;;;;;;;33.37;15.90;159959.62;1728984;83;21243;-71
2021/03/09 11:39:56;;;;;;;4.15;2.00;;;;;;;31.81;16.60;159540.41;1728751;83;21871;-70
2021/03/09 11:42:28;;;;;;;3.42;1.65;;;;;;;30.39;17.34;159160.23;1729011;83;21259;-70
2021/03/09 11:45:01;;;;;;;3.33;1.85;;;;;;;29.35;17.69;158883.06;1736092;81;21803;-70
2021/03/09 11:47:34;;;;;;;2.40;1.60;;;;;;;28.52;17.99;158659.42;1728857;83;21189;-71
2021/03/09 11:50:08;;;;;;;3.02;2.02;;;;;;;27.88;18.31;158489.05;1715749;83;21747;-71
2021/03/09 11:52:40;;;;;;;4.08;1.60;;;;;;;27.39;18.58;158357.36;1729071;83;21204;-70
2021/03/09 11:55:13;;;;;;;3.05;1.40;;;;;;;27.15;18.84;158292.19;1749946;81;21838;-70
2021/03/09 11:57:45;;;;;;;4.25;1.47;;;;;;;26.96;18.84;158243.00;1715902;82;21248;-70
2021/03/09 12:00:19;;;;;;;2.90;1.90;;;;;;;26.58;18.79;158141.98;1729723;81;22087;-70